Time;durP1;ratioP1;P1;durP2;ratioP2;P2;SDS_P1;SDS_P2;PMS_P1;PMS_P2;Temp;Humidity;BMP_temperature;BMP_pressure;BME280_temperature;BME280_humidity;BME280_pressure;Samples;Min_cycle;Max_cycle;Signal;HPM_P1;HPM_P2
2021/01/28 00:00:43;;;;;;;0.80;0.80;;;;;;;;;;5060860;28;20225;-48
2021/01/28 00:03:11;;;;;;;0.95;0.93;;;;;;;;;;5056857;28;20202;-48
2021/01/28 00:05:38;;;;;;;1.15;0.85;;;;;;;;;;5063509;28;20178;-48
2021/01/28 00:08:05;;;;;;;0.88;0.75;;;;;;;;;;5063410;28;20178;-49
2021/01/28 00:10:31;;;;;;;0.95;0.73;;;;;;;;;;5072190;28;20627;-49
2021/01/28 00:12:57;;;;;;;0.85;0.80;;;;;;;;;;5070103;28;20194;-49
2021/01/28 00:15:25;;;;;;;1.45;0.82;;;;;;;;;;5055984;28;20250;-49
2021/01/28 00:17:51;;;;;;;1.23;1.02;;;;;;;;;;5062442;28;20971;-48
2021/01/28 00:20:19;;;;;;;0.93;0.77;;;;;;;;;;5065472;28;20183;-48
2021/01/28 00:22:45;;;;;;;1.83;0.80;;;;;;;;;;5069365;28;20217;-48
2021/01/28 00:25:13;;;;;;;0.85;0.60;;;;;;;;;;5058482;28;20797;-48
2021/01/28 00:27:39;;;;;;;0.77;0.73;;;;;;;;;;5058851;28;20178;-48
2021/01/28 00:30:06;;;;;;;1.77;0.60;;;;;;;;;;5053797;28;20494;-48
2021/01/28 00:32:32;;;;;;;1.05;0.70;;;;;;;;;;5053454;28;20179;-48
2021/01/28 00:34:58;;;;;;;1.55;0.70;;;;;;;;;;5065156;28;20201;-48
2021/01/28 00:37:24;;;;;;;0.95;0.80;;;;;;;;;;5065411;28;20190;-49
2021/01/28 00:39:50;;;;;;;0.75;0.73;;;;;;;;;;5052611;28;20452;-49
2021/01/28 00:42:16;;;;;;;0.75;0.70;;;;;;;;;;5053636;28;20287;-49
2021/01/28 00:44:42;;;;;;;0.68;0.68;;;;;;;;;;5066803;28;20262;-48
2021/01/28 00:47:08;;;;;;;1.50;0.80;;;;;;;;;;5072591;28;20192;-49
2021/01/28 00:49:34;;;;;;;1.55;0.75;;;;;;;;;;5063004;28;20186;-49
2021/01/28 00:52:00;;;;;;;0.65;0.57;;;;;;;;;;5053209;28;20183;-48
2021/01/28 00:54:26;;;;;;;1.00;0.57;;;;;;;;;;5054052;28;20646;-50
2021/01/28 00:56:52;;;;;;;0.70;0.68;;;;;;;;;;5052970;28;20187;-48
2021/01/28 00:59:19;;;;;;;1.27;0.90;;;;;;;;;;5053424;28;20206;-49
2021/01/28 01:01:45;;;;;;;0.60;0.60;;;;;;;;;;5067680;28;20197;-49
2021/01/28 01:04:11;;;;;;;0.98;0.75;;;;;;;;;;5057906;28;20554;-48
2021/01/28 01:06:37;;;;;;;1.67;0.90;;;;;;;;;;5067955;28;20263;-48
2021/01/28 01:09:03;;;;;;;1.60;0.60;;;;;;;;;;5072403;28;20188;-48
2021/01/28 01:11:29;;;;;;;0.65;0.65;;;;;;;;;;5055029;28;20183;-49
2021/01/28 01:13:55;;;;;;;0.70;0.70;;;;;;;;;;5053954;28;20186;-49
2021/01/28 01:16:21;;;;;;;0.70;0.70;;;;;;;;;;5054318;28;20191;-49
2021/01/28 01:18:47;;;;;;;0.95;0.70;;;;;;;;;;5067531;28;20643;-49
2021/01/28 01:21:13;;;;;;;0.77;0.60;;;;;;;;;;5063414;28;20305;-48
2021/01/28 01:23:39;;;;;;;0.60;0.60;;;;;;;;;;5059152;28;20245;-49
2021/01/28 01:26:05;;;;;;;0.60;0.60;;;;;;;;;;5056728;28;20186;-49
2021/01/28 01:28:32;;;;;;;0.43;0.43;;;;;;;;;;5071114;28;20184;-49
2021/01/28 01:30:58;;;;;;;0.63;0.63;;;;;;;;;;5077165;28;20554;-49
2021/01/28 01:33:24;;;;;;;1.02;0.73;;;;;;;;;;5064065;28;20265;-48
2021/01/28 01:35:50;;;;;;;0.50;0.50;;;;;;;;;;5070222;28;20485;-48
2021/01/28 01:38:17;;;;;;;0.50;0.50;;;;;;;;;;5076518;28;20210;-48
2021/01/28 01:40:51;;;;;;;0.60;0.60;;;;;;;;;;5056406;28;20206;-48
2021/01/28 01:43:17;;;;;;;0.40;0.40;;;;;;;;;;5057049;28;20459;-48
2021/01/28 01:45:45;;;;;;;0.52;0.52;;;;;;;;;;5056787;28;20172;-48
2021/01/28 01:48:14;;;;;;;0.55;0.55;;;;;;;;;;5065552;28;20186;-48
2021/01/28 01:50:49;;;;;;;0.60;0.60;;;;;;;;;;5059056;28;20191;-48
2021/01/28 01:53:27;;;;;;;0.40;0.40;;;;;;;;;;5073051;28;20192;-49
2021/01/28 01:55:55;;;;;;;0.50;0.50;;;;;;;;;;5074824;28;20185;-49
2021/01/28 01:58:28;;;;;;;0.60;0.60;;;;;;;;;;5063425;28;20205;-49
2021/01/28 02:00:54;;;;;;;0.57;0.57;;;;;;;;;;5076039;28;20229;-49
2021/01/28 02:03:21;;;;;;;1.45;0.52;;;;;;;;;;5062319;28;20497;-49
2021/01/28 02:05:49;;;;;;;0.45;0.45;;;;;;;;;;5069976;28;20562;-48
2021/01/28 02:08:15;;;;;;;0.50;0.50;;;;;;;;;;5065448;28;20194;-48
2021/01/28 02:10:41;;;;;;;1.08;0.50;;;;;;;;;;5075300;28;20470;-48
2021/01/28 02:13:08;;;;;;;0.50;0.50;;;;;;;;;;5076362;28;20273;-48
2021/01/28 02:15:34;;;;;;;0.50;0.50;;;;;;;;;;5074657;28;20208;-48
2021/01/28 02:18:00;;;;;;;0.47;0.47;;;;;;;;;;5069540;28;20179;-48
2021/01/28 02:20:42;;;;;;;0.52;0.40;;;;;;;;;;5064127;28;20214;-48
2021/01/28 02:23:26;;;;;;;0.50;0.50;;;;;;;;;;5056644;28;20525;-48
2021/01/28 02:25:53;;;;;;;0.57;0.50;;;;;;;;;;5055107;28;20270;-48
2021/01/28 02:28:19;;;;;;;0.55;0.55;;;;;;;;;;5055880;28;20167;-48
2021/01/28 02:30:46;;;;;;;0.50;0.50;;;;;;;;;;5069256;28;20504;-49
2021/01/28 02:33:13;;;;;;;2.97;0.50;;;;;;;;;;5074274;28;20217;-49
2021/01/28 02:35:39;;;;;;;0.52;0.52;;;;;;;;;;5067140;28;20194;-48
2021/01/28 02:38:08;;;;;;;0.52;0.52;;;;;;;;;;5075949;28;20190;-48
2021/01/28 02:40:34;;;;;;;0.40;0.40;;;;;;;;;;5069852;28;20182;-49
2021/01/28 02:43:01;;;;;;;0.50;0.47;;;;;;;;;;5075274;28;20665;-49
2021/01/28 02:45:29;;;;;;;0.40;0.40;;;;;;;;;;5059207;28;20278;-49
2021/01/28 02:48:00;;;;;;;0.40;0.40;;;;;;;;;;5055623;28;20555;-48
2021/01/28 02:50:26;;;;;;;0.40;0.35;;;;;;;;;;5066568;28;20286;-49
2021/01/28 02:52:53;;;;;;;0.50;0.50;;;;;;;;;;5071276;28;20182;-49
2021/01/28 02:55:20;;;;;;;0.40;0.40;;;;;;;;;;5070156;28;20225;-49
2021/01/28 02:57:45;;;;;;;0.40;0.40;;;;;;;;;;5075131;28;20623;-48
2021/01/28 03:00:13;;;;;;;0.30;0.30;;;;;;;;;;5065123;28;20183;-48
2021/01/28 03:02:39;;;;;;;0.40;0.40;;;;;;;;;;5074747;28;20205;-48
2021/01/28 03:05:05;;;;;;;0.30;0.30;;;;;;;;;;5061812;28;20174;-48
2021/01/28 03:07:31;;;;;;;0.50;0.50;;;;;;;;;;5055181;28;20577;-48
2021/01/28 03:09:57;;;;;;;0.40;0.40;;;;;;;;;;5054672;28;20206;-48
2021/01/28 03:12:23;;;;;;;0.35;0.35;;;;;;;;;;5067398;28;20198;-48
2021/01/28 03:14:49;;;;;;;0.43;0.43;;;;;;;;;;5065206;28;20214;-48
2021/01/28 03:17:15;;;;;;;0.43;0.43;;;;;;;;;;5063099;28;20167;-49
2021/01/28 03:19:41;;;;;;;0.40;0.40;;;;;;;;;;5068817;28;20214;-49
2021/01/28 03:22:07;;;;;;;0.40;0.40;;;;;;;;;;5055457;28;20191;-49
2021/01/28 03:24:33;;;;;;;0.40;0.40;;;;;;;;;;5058007;28;20505;-48
2021/01/28 03:26:59;;;;;;;0.45;0.45;;;;;;;;;;5062685;28;20193;-49
2021/01/28 03:29:25;;;;;;;0.50;0.50;;;;;;;;;;5055835;28;20194;-49
2021/01/28 03:31:51;;;;;;;0.40;0.40;;;;;;;;;;5053654;28;20456;-48
2021/01/28 03:34:17;;;;;;;0.30;0.30;;;;;;;;;;5055782;28;20276;-48
2021/01/28 03:36:43;;;;;;;0.50;0.50;;;;;;;;;;5058623;28;20175;-48
2021/01/28 03:39:09;;;;;;;0.40;0.40;;;;;;;;;;5074562;28;20265;-48
2021/01/28 03:41:35;;;;;;;0.40;0.40;;;;;;;;;;5060233;28;20206;-48
2021/01/28 03:44:01;;;;;;;0.73;0.73;;;;;;;;;;5054428;28;20209;-48
2021/01/28 03:46:27;;;;;;;0.40;0.40;;;;;;;;;;5069401;28;20187;-48
2021/01/28 03:48:53;;;;;;;0.28;0.28;;;;;;;;;;5068260;28;20183;-49
2021/01/28 03:51:19;;;;;;;0.40;0.40;;;;;;;;;;5060893;28;20361;-49
2021/01/28 03:53:46;;;;;;;0.40;0.40;;;;;;;;;;5072972;28;20185;-49
2021/01/28 03:56:12;;;;;;;0.30;0.30;;;;;;;;;;5069579;28;20190;-49
2021/01/28 03:58:38;;;;;;;0.28;0.28;;;;;;;;;;5071285;28;20193;-48
2021/01/28 04:01:04;;;;;;;0.50;0.40;;;;;;;;;;5063666;28;20210;-48
2021/01/28 04:03:30;;;;;;;0.47;0.47;;;;;;;;;;5068564;28;20459;-48
2021/01/28 04:05:56;;;;;;;0.38;0.38;;;;;;;;;;5071361;28;20715;-48
2021/01/28 04:08:22;;;;;;;0.32;0.32;;;;;;;;;;5068787;28;20179;-49
2021/01/28 04:10:48;;;;;;;0.30;0.30;;;;;;;;;;5053510;28;20207;-49
2021/01/28 04:13:14;;;;;;;0.75;0.40;;;;;;;;;;5072828;28;20210;-49
2021/01/28 04:15:40;;;;;;;0.22;0.22;;;;;;;;;;5060363;28;20271;-49
2021/01/28 04:18:06;;;;;;;0.57;0.35;;;;;;;;;;5069106;28;20572;-49
2021/01/28 04:20:34;;;;;;;0.40;0.40;;;;;;;;;;5054680;28;20191;-49
2021/01/28 04:23:00;;;;;;;0.40;0.40;;;;;;;;;;5060873;28;20210;-48
2021/01/28 04:25:26;;;;;;;0.40;0.40;;;;;;;;;;5059888;28;20616;-48
2021/01/28 04:27:53;;;;;;;0.50;0.50;;;;;;;;;;5053406;28;20191;-49
2021/01/28 04:30:21;;;;;;;0.30;0.30;;;;;;;;;;5056509;28;20187;-49
2021/01/28 04:32:47;;;;;;;0.40;0.40;;;;;;;;;;5066288;28;20217;-49
2021/01/28 04:35:13;;;;;;;1.42;0.50;;;;;;;;;;5055862;28;20214;-49
2021/01/28 04:37:39;;;;;;;0.30;0.30;;;;;;;;;;5065756;28;20194;-48
2021/01/28 04:40:07;;;;;;;0.30;0.30;;;;;;;;;;5073767;28;20257;-48
2021/01/28 04:42:44;;;;;;;0.40;0.32;;;;;;;;;;5072903;28;20206;-48
2021/01/28 04:45:11;;;;;;;0.40;0.38;;;;;;;;;;5057982;28;20193;-48
2021/01/28 04:47:40;;;;;;;0.30;0.25;;;;;;;;;;5057958;28;20182;-48
2021/01/28 04:50:06;;;;;;;0.40;0.40;;;;;;;;;;5070216;28;20182;-48
2021/01/28 04:52:37;;;;;;;0.30;0.30;;;;;;;;;;5061050;28;20190;-48
2021/01/28 04:55:03;;;;;;;0.30;0.30;;;;;;;;;;5067705;28;20541;-49
2021/01/28 04:57:29;;;;;;;0.40;0.40;;;;;;;;;;5073668;28;20240;-49
2021/01/28 04:59:55;;;;;;;0.22;0.22;;;;;;;;;;5063286;28;20570;-48
2021/01/28 05:02:23;;;;;;;0.20;0.20;;;;;;;;;;5071379;28;20289;-48
2021/01/28 05:04:56;;;;;;;0.30;0.30;;;;;;;;;;5063719;28;20190;-48
2021/01/28 05:07:24;;;;;;;0.20;0.20;;;;;;;;;;5073582;28;20220;-48
2021/01/28 05:10:05;;;;;;;0.30;0.30;;;;;;;;;;5072766;28;20550;-49
2021/01/28 05:12:31;;;;;;;0.30;0.30;;;;;;;;;;5073717;28;20625;-48
2021/01/28 05:15:20;;;;;;;0.32;0.32;;;;;;;;;;5052299;28;20229;-48
2021/01/28 05:18:16;;;;;;;1.77;0.45;;;;;;;;;;5051331;28;20182;-48
2021/01/28 05:20:43;;;;;;;0.35;0.35;;;;;;;;;;5058032;28;20208;-48
2021/01/28 05:23:10;;;;;;;4.65;1.10;;;;;;;;;;5052966;28;20277;-48
2021/01/28 05:25:40;;;;;;;6.93;1.77;;;;;;;;;;5052047;28;20179;-48
2021/01/28 05:28:30;;;;;;;6.07;1.35;;;;;;;;;;5067393;28;20218;-48
2021/01/28 05:30:58;;;;;;;7.68;1.15;;;;;;;;;;5057058;28;20195;-48
2021/01/28 05:33:28;;;;;;;5.63;1.42;;;;;;;;;;5062302;28;20612;-48
2021/01/28 05:36:10;;;;;;;2.85;1.00;;;;;;;;;;5060852;28;20269;-48
2021/01/28 05:38:41;;;;;;;7.82;1.45;;;;;;;;;;5059673;28;20183;-48
2021/01/28 05:41:09;;;;;;;5.90;0.90;;;;;;;;;;5054493;28;20194;-48
2021/01/28 05:43:40;;;;;;;5.35;1.10;;;;;;;;;;5062569;28;20233;-48
2021/01/28 05:46:18;;;;;;;6.72;1.30;;;;;;;;;;5070601;28;20179;-48
2021/01/28 05:48:45;;;;;;;3.40;1.13;;;;;;;;;;5056964;28;20179;-48
2021/01/28 05:51:16;;;;;;;6.72;1.08;;;;;;;;;;5062948;28;20174;-48
2021/01/28 05:53:56;;;;;;;3.58;1.05;;;;;;;;;;5064045;28;20186;-48
2021/01/28 05:56:23;;;;;;;3.88;1.00;;;;;;;;;;5052135;28;20187;-48
2021/01/28 05:59:09;;;;;;;5.43;1.10;;;;;;;;;;5068285;28;20193;-48
2021/01/28 06:01:35;;;;;;;1.60;0.82;;;;;;;;;;5058674;28;20193;-48
2021/01/28 06:04:07;;;;;;;2.42;1.05;;;;;;;;;;5061552;28;20199;-49
2021/01/28 06:06:50;;;;;;;2.72;1.17;;;;;;;;;;5059656;28;20258;-48
2021/01/28 06:09:23;;;;;;;4.18;1.10;;;;;;;;;;5065934;28;20193;-49
2021/01/28 06:12:01;;;;;;;2.85;0.88;;;;;;;;;;5074803;28;20588;-48
2021/01/28 06:14:30;;;;;;;6.20;1.00;;;;;;;;;;5062228;28;20170;-48
2021/01/28 06:16:59;;;;;;;2.88;1.10;;;;;;;;;;5065317;28;20191;-48
2021/01/28 06:19:25;;;;;;;2.90;0.75;;;;;;;;;;5062215;28;20194;-48
2021/01/28 06:22:07;;;;;;;0.95;0.75;;;;;;;;;;5071140;28;20194;-49
2021/01/28 06:24:49;;;;;;;1.58;0.70;;;;;;;;;;5071143;28;20186;-48
2021/01/28 06:27:15;;;;;;;2.35;0.77;;;;;;;;;;5073450;28;20174;-48
2021/01/28 06:29:41;;;;;;;5.28;1.55;;;;;;;;;;5071648;28;20201;-49
2021/01/28 06:32:44;;;;;;;2.15;0.60;;;;;;;;;;5072630;28;20221;-49
2021/01/28 06:35:29;;;;;;;1.90;0.77;;;;;;;;;;5067537;28;20201;-49
2021/01/28 06:38:10;;;;;;;2.80;0.90;;;;;;;;;;5067623;28;20182;-49
2021/01/28 06:40:38;;;;;;;1.50;0.80;;;;;;;;;;5075347;28;20182;-49
2021/01/28 06:43:14;;;;;;;1.02;0.70;;;;;;;;;;5065820;28;20452;-49
2021/01/28 06:45:53;;;;;;;1.75;0.80;;;;;;;;;;5054824;28;20163;-49
2021/01/28 06:48:23;;;;;;;2.75;0.85;;;;;;;;;;5056846;28;20201;-48
2021/01/28 06:50:56;;;;;;;1.88;0.80;;;;;;;;;;5059294;28;20197;-49
2021/01/28 06:53:28;;;;;;;2.65;0.73;;;;;;;;;;5070030;28;20164;-48
2021/01/28 06:56:00;;;;;;;2.22;0.70;;;;;;;;;;5073759;28;20210;-48
2021/01/28 06:58:45;;;;;;;1.40;0.80;;;;;;;;;;5068685;28;20193;-48
2021/01/28 07:01:11;;;;;;;1.65;0.75;;;;;;;;;;5070805;28;20198;-49
2021/01/28 07:03:43;;;;;;;1.70;0.98;;;;;;;;;;5065490;28;20212;-49
2021/01/28 07:06:17;;;;;;;0.90;0.50;;;;;;;;;;5056767;28;20183;-49
2021/01/28 07:08:43;;;;;;;0.75;0.60;;;;;;;;;;5054692;28;20205;-48
2021/01/28 07:11:16;;;;;;;1.08;0.88;;;;;;;;;;5062943;28;20183;-48
2021/01/28 07:13:42;;;;;;;1.00;0.80;;;;;;;;;;5067265;28;20183;-48
2021/01/28 07:16:22;;;;;;;1.55;0.70;;;;;;;;;;5066617;28;20190;-48
2021/01/28 07:18:50;;;;;;;1.45;0.70;;;;;;;;;;5070059;28;20190;-48
2021/01/28 07:21:28;;;;;;;1.60;0.75;;;;;;;;;;5064729;28;20222;-49
2021/01/28 07:24:24;;;;;;;1.85;0.60;;;;;;;;;;5069194;28;20263;-49
2021/01/28 07:26:59;;;;;;;1.00;0.63;;;;;;;;;;5057410;28;20175;-48
2021/01/28 07:29:28;;;;;;;1.67;0.68;;;;;;;;;;5060887;28;20268;-49
2021/01/28 07:31:54;;;;;;;0.98;0.60;;;;;;;;;;5057888;28;20191;-48
2021/01/28 07:34:20;;;;;;;2.72;0.80;;;;;;;;;;5057131;28;20190;-49
2021/01/28 07:36:49;;;;;;;1.95;0.68;;;;;;;;;;5063015;28;20202;-48
2021/01/28 07:39:41;;;;;;;1.80;0.70;;;;;;;;;;5056120;28;20191;-48
2021/01/28 07:42:26;;;;;;;0.82;0.57;;;;;;;;;;5056571;28;20219;-48
2021/01/28 07:44:53;;;;;;;1.10;0.65;;;;;;;;;;5053105;28;20175;-49
2021/01/28 07:47:31;;;;;;;1.38;0.60;;;;;;;;;;5069960;28;20198;-49
2021/01/28 07:50:06;;;;;;;0.75;0.65;;;;;;;;;;5069981;28;20190;-48
2021/01/28 07:52:38;;;;;;;2.38;1.00;;;;;;;;;;5067462;28;20189;-49
2021/01/28 07:55:04;;;;;;;0.98;0.68;;;;;;;;;;5074095;28;20178;-48
2021/01/28 07:57:30;;;;;;;1.00;0.73;;;;;;;;;;5073976;28;20186;-49
2021/01/28 07:59:59;;;;;;;2.13;0.75;;;;;;;;;;5073584;28;20451;-48
2021/01/28 08:02:26;;;;;;;2.15;0.63;;;;;;;;;;5070327;28;20574;-48
2021/01/28 08:04:55;;;;;;;1.55;0.93;;;;;;;;;;5064346;28;20634;-48
2021/01/28 08:07:24;;;;;;;1.10;0.80;;;;;;;;;;5066810;28;20179;-48
2021/01/28 08:09:55;;;;;;;1.30;0.80;;;;;;;;;;5060191;28;20171;-48
2021/01/28 08:12:22;;;;;;;1.15;0.90;;;;;;;;;;5059395;28;20167;-48
2021/01/28 08:14:50;;;;;;;0.82;0.75;;;;;;;;;;5053144;28;20171;-48
2021/01/28 08:17:19;;;;;;;0.65;0.65;;;;;;;;;;5056166;28;20590;-48
2021/01/28 08:19:45;;;;;;;1.05;0.80;;;;;;;;;;5054587;28;20191;-48
2021/01/28 08:22:16;;;;;;;1.25;0.70;;;;;;;;;;5052627;28;20177;-48
2021/01/28 08:24:52;;;;;;;1.05;0.70;;;;;;;;;;5052329;28;20182;-48
2021/01/28 08:27:19;;;;;;;0.80;0.70;;;;;;;;;;5053396;28;20181;-49
2021/01/28 08:29:45;;;;;;;0.80;0.75;;;;;;;;;;5053179;28;20182;-49
2021/01/28 08:32:27;;;;;;;0.60;0.60;;;;;;;;;;5053585;28;20171;-49
2021/01/28 08:35:20;;;;;;;0.82;0.80;;;;;;;;;;5052395;28;20268;-48
2021/01/28 08:37:46;;;;;;;1.10;0.82;;;;;;;;;;5050004;28;20278;-49
2021/01/28 08:40:19;;;;;;;0.70;0.70;;;;;;;;;;5056056;28;20325;-49
2021/01/28 08:42:45;;;;;;;0.93;0.60;;;;;;;;;;5059791;28;20209;-49
2021/01/28 08:45:11;;;;;;;0.80;0.60;;;;;;;;;;5066244;28;20179;-49
2021/01/28 08:47:37;;;;;;;0.65;0.57;;;;;;;;;;5072510;28;20193;-48
2021/01/28 08:50:08;;;;;;;0.60;0.60;;;;;;;;;;5067208;28;20267;-49
2021/01/28 08:52:35;;;;;;;1.33;0.75;;;;;;;;;;5058942;28;20214;-48
2021/01/28 08:55:08;;;;;;;0.70;0.60;;;;;;;;;;5059246;28;20217;-48
2021/01/28 08:57:34;;;;;;;0.85;0.70;;;;;;;;;;5052767;28;20183;-48
2021/01/28 09:00:02;;;;;;;0.70;0.70;;;;;;;;;;5055653;28;20273;-48
2021/01/28 09:02:30;;;;;;;1.40;0.85;;;;;;;;;;5066333;28;20205;-48
2021/01/28 09:05:01;;;;;;;1.17;0.88;;;;;;;;;;5060625;28;20179;-48
2021/01/28 09:07:48;;;;;;;1.00;0.77;;;;;;;;;;5071103;28;20179;-48
2021/01/28 09:10:23;;;;;;;1.17;0.70;;;;;;;;;;5068300;28;20182;-48
2021/01/28 09:12:49;;;;;;;0.60;0.50;;;;;;;;;;5054079;28;20206;-49
2021/01/28 09:15:15;;;;;;;0.88;0.68;;;;;;;;;;5063641;28;20200;-49
2021/01/28 09:17:43;;;;;;;1.00;0.60;;;;;;;;;;5062416;28;20183;-49
2021/01/28 09:20:19;;;;;;;0.85;0.60;;;;;;;;;;5063024;28;20191;-49
2021/01/28 09:22:45;;;;;;;1.20;0.70;;;;;;;;;;5052788;28;20222;-48
2021/01/28 09:25:18;;;;;;;1.38;0.60;;;;;;;;;;5066844;28;20178;-49
2021/01/28 09:27:45;;;;;;;1.08;0.70;;;;;;;;;;5071863;28;20237;-49
2021/01/28 09:30:17;;;;;;;0.85;0.50;;;;;;;;;;5056047;28;20186;-49
2021/01/28 09:32:44;;;;;;;1.00;0.93;;;;;;;;;;5066338;28;20276;-48
2021/01/28 09:35:14;;;;;;;0.93;0.68;;;;;;;;;;5070710;28;20652;-49
2021/01/28 09:37:45;;;;;;;1.25;0.80;;;;;;;;;;5060127;28;20264;-49
2021/01/28 09:40:26;;;;;;;0.52;0.52;;;;;;;;;;5066291;28;20194;-49
2021/01/28 09:42:52;;;;;;;2.65;0.98;;;;;;;;;;5074051;28;20221;-48
2021/01/28 09:45:27;;;;;;;1.85;0.88;;;;;;;;;;5065873;28;20179;-48
2021/01/28 09:47:54;;;;;;;3.47;0.93;;;;;;;;;;5062445;28;20183;-48
2021/01/28 09:50:20;;;;;;;1.15;0.93;;;;;;;;;;5061955;28;20178;-48
2021/01/28 09:52:47;;;;;;;1.90;1.10;;;;;;;;;;5067217;28;20282;-48
2021/01/28 09:55:18;;;;;;;0.80;0.80;;;;;;;;;;5065654;28;20535;-48
2021/01/28 09:57:44;;;;;;;1.52;1.08;;;;;;;;;;5065976;28;20261;-48
2021/01/28 10:00:12;;;;;;;1.92;1.38;;;;;;;;;;5075224;28;20690;-48
2021/01/28 10:02:45;;;;;;;4.53;1.52;;;;;;;;;;5064099;28;20306;-48
2021/01/28 10:05:13;;;;;;;4.03;1.70;;;;;;;;;;5056095;28;20263;-48
2021/01/28 10:07:39;;;;;;;2.58;1.52;;;;;;;;;;5069126;28;20174;-48
2021/01/28 10:10:09;;;;;;;3.47;1.55;;;;;;;;;;5067087;28;20254;-49
2021/01/28 10:12:35;;;;;;;3.05;1.40;;;;;;;;;;5059614;28;20459;-49
2021/01/28 10:15:01;;;;;;;3.75;1.48;;;;;;;;;;5056826;28;20202;-48
2021/01/28 10:17:27;;;;;;;3.33;1.70;;;;;;;;;;5063347;28;20171;-48
2021/01/28 10:19:53;;;;;;;3.63;1.48;;;;;;;;;;5061009;28;20510;-48
2021/01/28 10:22:20;;;;;;;3.22;1.17;;;;;;;;;;5075521;28;20174;-48
2021/01/28 10:24:46;;;;;;;2.95;1.13;;;;;;;;;;5070080;28;20601;-48
2021/01/28 10:27:13;;;;;;;4.38;1.50;;;;;;;;;;5066644;28;20181;-48
2021/01/28 10:29:41;;;;;;;2.40;1.50;;;;;;;;;;5057056;28;20205;-49
2021/01/28 10:32:08;;;;;;;1.70;1.20;;;;;;;;;;5075757;28;20185;-49
2021/01/28 10:34:35;;;;;;;3.38;1.58;;;;;;;;;;5065321;28;20632;-48
2021/01/28 10:37:01;;;;;;;4.53;2.00;;;;;;;;;;5068437;28;20309;-49
2021/01/28 10:39:27;;;;;;;7.50;3.17;;;;;;;;;;5058871;28;20541;-49
2021/01/28 10:41:53;;;;;;;14.35;4.28;;;;;;;;;;5063374;28;20206;-48
2021/01/28 10:44:20;;;;;;;17.55;5.30;;;;;;;;;;5056341;28;20221;-48
2021/01/28 10:46:47;;;;;;;26.95;7.20;;;;;;;;;;5061082;28;20173;-48
2021/01/28 10:49:13;;;;;;;46.03;10.60;;;;;;;;;;5059420;28;20183;-49
2021/01/28 10:51:39;;;;;;;53.40;13.40;;;;;;;;;;5058434;28;20189;-49
2021/01/28 10:54:05;;;;;;;35.75;10.05;;;;;;;;;;5069600;28;20190;-48
2021/01/28 10:56:31;;;;;;;47.08;10.70;;;;;;;;;;5063264;28;20554;-48
2021/01/28 10:58:57;;;;;;;43.15;12.27;;;;;;;;;;5059430;28;20190;-48
2021/01/28 11:01:23;;;;;;;44.45;11.75;;;;;;;;;;5055494;28;20175;-48
2021/01/28 11:03:49;;;;;;;39.05;10.50;;;;;;;;;;5055086;28;20614;-48
2021/01/28 11:06:15;;;;;;;61.22;17.92;;;;;;;;;;5073903;28;20208;-49
2021/01/28 11:08:41;;;;;;;61.95;16.38;;;;;;;;;;5056707;28;20187;-48
2021/01/28 11:11:07;;;;;;;58.65;14.35;;;;;;;;;;5066421;28;20446;-48
2021/01/28 11:13:33;;;;;;;46.33;12.52;;;;;;;;;;5054808;28;20543;-48
2021/01/28 11:16:00;;;;;;;45.67;12.80;;;;;;;;;;5071548;28;20249;-48
2021/01/28 11:18:26;;;;;;;37.15;12.20;;;;;;;;;;5056754;28;20194;-48
2021/01/28 11:20:52;;;;;;;49.83;12.43;;;;;;;;;;5058741;28;20217;-48
2021/01/28 11:23:18;;;;;;;40.75;11.57;;;;;;;;;;5055765;28;20202;-48
2021/01/28 11:25:44;;;;;;;44.15;11.77;;;;;;;;;;5057548;28;20237;-48
2021/01/28 11:28:10;;;;;;;37.33;12.73;;;;;;;;;;5069867;28;20212;-48
2021/01/28 11:30:36;;;;;;;37.65;10.93;;;;;;;;;;5066796;28;20542;-48
2021/01/28 11:33:04;;;;;;;32.25;10.25;;;;;;;;;;5055642;28;20209;-48
2021/01/28 11:35:33;;;;;;;38.88;10.85;;;;;;;;;;5066904;28;20186;-48
2021/01/28 11:37:59;;;;;;;33.05;10.27;;;;;;;;;;5060505;28;20229;-48
2021/01/28 11:40:26;;;;;;;36.53;10.38;;;;;;;;;;5069855;28;20205;-48
2021/01/28 11:42:52;;;;;;;35.72;9.68;;;;;;;;;;5066551;28;20215;-48
2021/01/28 11:45:20;;;;;;;36.15;10.23;;;;;;;;;;5054107;28;20209;-49
2021/01/28 11:47:46;;;;;;;29.25;9.35;;;;;;;;;;5070447;28;20220;-48
2021/01/28 11:50:12;;;;;;;27.48;8.63;;;;;;;;;;5067671;28;20229;-49
2021/01/28 11:52:38;;;;;;;27.77;8.45;;;;;;;;;;5061224;28;20183;-48
2021/01/28 11:55:05;;;;;;;30.50;8.95;;;;;;;;;;5057475;28;20897;-48
2021/01/28 11:57:31;;;;;;;31.92;10.20;;;;;;;;;;5070817;28;20178;-48
2021/01/28 11:59:57;;;;;;;25.20;8.23;;;;;;;;;;5070566;28;20190;-48
2021/01/28 12:02:23;;;;;;;29.17;8.77;;;;;;;;;;5059481;28;20461;-48
2021/01/28 12:04:49;;;;;;;22.15;7.82;;;;;;;;;;5071858;28;20179;-48
2021/01/28 12:07:18;;;;;;;22.25;7.43;;;;;;;;;;5073588;28;20202;-48
2021/01/28 12:09:45;;;;;;;22.55;7.57;;;;;;;;;;5066933;28;20206;-48
2021/01/28 12:12:11;;;;;;;22.80;7.32;;;;;;;;;;5067436;28;20190;-48
2021/01/28 12:14:37;;;;;;;23.27;7.80;;;;;;;;;;5070771;28;20183;-48
2021/01/28 12:17:03;;;;;;;26.65;7.13;;;;;;;;;;5072323;28;20190;-48
2021/01/28 12:19:29;;;;;;;19.85;6.85;;;;;;;;;;5080246;28;20206;-48
2021/01/28 12:21:55;;;;;;;17.10;6.60;;;;;;;;;;5054234;28;20195;-48
2021/01/28 12:24:21;;;;;;;23.35;7.10;;;;;;;;;;5054829;28;20203;-49
2021/01/28 12:26:47;;;;;;;21.63;7.70;;;;;;;;;;5066538;28;20182;-49
2021/01/28 12:29:14;;;;;;;18.40;6.15;;;;;;;;;;5065718;28;20433;-49
2021/01/28 12:31:40;;;;;;;21.13;6.53;;;;;;;;;;5069536;28;20257;-49
2021/01/28 12:34:05;;;;;;;19.35;6.18;;;;;;;;;;5073237;28;20484;-49
2021/01/28 12:36:31;;;;;;;20.55;5.68;;;;;;;;;;5057113;28;20182;-49
2021/01/28 12:38:58;;;;;;;18.73;5.80;;;;;;;;;;5054456;28;20453;-48
2021/01/28 12:41:24;;;;;;;18.13;5.60;;;;;;;;;;5066177;28;20541;-49
2021/01/28 12:43:50;;;;;;;15.48;5.90;;;;;;;;;;5061126;28;20239;-48
2021/01/28 12:46:16;;;;;;;16.48;5.15;;;;;;;;;;5063616;28;20186;-48
2021/01/28 12:48:42;;;;;;;17.67;5.63;;;;;;;;;;5065749;28;20206;-48
2021/01/28 12:51:08;;;;;;;16.13;5.35;;;;;;;;;;5070737;28;20581;-48
2021/01/28 12:53:34;;;;;;;14.88;5.13;;;;;;;;;;5065416;28;20252;-49
2021/01/28 12:56:00;;;;;;;28.30;5.68;;;;;;;;;;5066997;28;20192;-48
2021/01/28 12:58:26;;;;;;;19.52;5.22;;;;;;;;;;5063194;28;20182;-48
2021/01/28 13:00:52;;;;;;;15.98;5.15;;;;;;;;;;5065535;28;20183;-48
2021/01/28 13:03:18;;;;;;;14.52;4.80;;;;;;;;;;5069491;28;20297;-48
2021/01/28 13:05:44;;;;;;;17.30;5.20;;;;;;;;;;5062037;28;20190;-49
2021/01/28 13:08:11;;;;;;;19.55;5.65;;;;;;;;;;5073269;28;20192;-48
2021/01/28 13:10:37;;;;;;;19.77;4.57;;;;;;;;;;5062126;28;20177;-48
2021/01/28 13:13:03;;;;;;;14.68;4.82;;;;;;;;;;5051547;28;20213;-48
2021/01/28 13:15:29;;;;;;;15.95;4.55;;;;;;;;;;5056044;28;20273;-48
2021/01/28 13:17:57;;;;;;;16.95;4.78;;;;;;;;;;5056882;28;20191;-49
2021/01/28 13:20:24;;;;;;;11.68;4.20;;;;;;;;;;5057899;28;20260;-48
2021/01/28 13:22:50;;;;;;;12.82;4.18;;;;;;;;;;5060107;28;20202;-48
2021/01/28 13:25:16;;;;;;;11.48;4.25;;;;;;;;;;5064984;28;20236;-48
2021/01/28 13:27:42;;;;;;;15.52;4.63;;;;;;;;;;5076146;28;20715;-49
2021/01/28 13:30:09;;;;;;;13.73;4.65;;;;;;;;;;5076666;28;20203;-48
2021/01/28 13:32:37;;;;;;;10.95;4.00;;;;;;;;;;5056802;28;20202;-48
2021/01/28 13:35:04;;;;;;;12.10;4.72;;;;;;;;;;5066485;28;20934;-48
2021/01/28 13:37:31;;;;;;;12.27;3.70;;;;;;;;;;5064156;28;20265;-48
2021/01/28 13:39:58;;;;;;;11.05;3.58;;;;;;;;;;5068769;28;20191;-48
2021/01/28 13:42:24;;;;;;;10.48;3.72;;;;;;;;;;5070567;28;20261;-48
2021/01/28 13:44:50;;;;;;;10.40;3.72;;;;;;;;;;5075997;28;20193;-49
2021/01/28 13:47:16;;;;;;;11.38;4.15;;;;;;;;;;5076281;28;20187;-49
2021/01/28 13:49:42;;;;;;;10.65;4.18;;;;;;;;;;5069055;28;20514;-49
2021/01/28 13:52:08;;;;;;;11.00;3.95;;;;;;;;;;5073479;28;20206;-49
2021/01/28 13:54:34;;;;;;;9.63;3.10;;;;;;;;;;5071158;28;20187;-48
2021/01/28 13:57:01;;;;;;;10.45;3.75;;;;;;;;;;5064562;28;20180;-48
2021/01/28 13:59:27;;;;;;;8.88;3.38;;;;;;;;;;5057715;28;20577;-48
2021/01/28 14:01:53;;;;;;;11.60;3.38;;;;;;;;;;5062748;28;20198;-48
2021/01/28 14:04:19;;;;;;;8.95;3.58;;;;;;;;;;5055986;28;20269;-48
2021/01/28 14:06:45;;;;;;;9.45;3.20;;;;;;;;;;5054965;28;20172;-48
2021/01/28 14:09:11;;;;;;;9.65;3.28;;;;;;;;;;5059995;28;20314;-48
2021/01/28 14:11:37;;;;;;;9.95;3.47;;;;;;;;;;5060983;28;20198;-48
2021/01/28 14:14:03;;;;;;;8.15;3.38;;;;;;;;;;5056894;28;20805;-49
2021/01/28 14:16:30;;;;;;;7.70;2.85;;;;;;;;;;5056012;28;20266;-48
2021/01/28 14:18:56;;;;;;;8.00;3.10;;;;;;;;;;5055548;28;20202;-49
2021/01/28 14:21:22;;;;;;;7.28;3.30;;;;;;;;;;5068695;28;20232;-48
2021/01/28 14:23:48;;;;;;;8.18;2.97;;;;;;;;;;5068523;28;20191;-48
2021/01/28 14:26:14;;;;;;;5.10;2.75;;;;;;;;;;5066043;28;20183;-49
2021/01/28 14:28:40;;;;;;;6.63;2.97;;;;;;;;;;5055320;28;20217;-48
2021/01/28 14:31:06;;;;;;;7.43;2.97;;;;;;;;;;5066440;28;20538;-48
2021/01/28 14:33:32;;;;;;;5.35;2.80;;;;;;;;;;5069620;28;20187;-49
2021/01/28 14:35:58;;;;;;;7.95;2.78;;;;;;;;;;5055133;28;20187;-49
2021/01/28 14:38:25;;;;;;;6.32;3.00;;;;;;;;;;5055927;28;20183;-49
2021/01/28 14:40:51;;;;;;;6.35;3.05;;;;;;;;;;5069732;28;20179;-48
2021/01/28 14:43:17;;;;;;;5.97;2.60;;;;;;;;;;5075963;28;20458;-49
2021/01/28 14:45:43;;;;;;;6.93;2.67;;;;;;;;;;5057797;28;20555;-48